createdAt,value
2023-05-05T00:01:33.166Z,16.21
2023-05-05T00:04:00.321Z,16.22
2023-05-05T00:06:31.532Z,16.23
2023-05-05T00:08:58.555Z,16.24
2023-05-05T00:11:26.068Z,16.25
2023-05-05T00:13:53.071Z,16.27
2023-05-05T00:16:20.133Z,16.23
2023-05-05T00:18:47.515Z,16.22
2023-05-05T00:21:15.561Z,16.19
2023-05-05T00:23:42.574Z,16.13
2023-05-05T00:26:09.544Z,16.12
2023-05-05T00:28:38.052Z,16.14
2023-05-05T00:31:05.186Z,16.20
2023-05-05T00:33:32.191Z,16.26
2023-05-05T00:35:59.562Z,16.34
2023-05-05T00:38:26.726Z,16.38
2023-05-05T00:40:53.824Z,16.43
2023-05-05T00:43:20.941Z,16.46
2023-05-05T00:46:09.527Z,16.46
2023-05-05T00:48:36.544Z,16.46
2023-05-05T00:51:08.534Z,16.47
2023-05-05T00:53:36.223Z,16.43
2023-05-05T00:56:03.497Z,16.42
2023-05-05T00:58:30.674Z,16.40
2023-05-05T01:00:57.618Z,16.39
2023-05-05T01:03:24.914Z,16.36
2023-05-05T01:06:06.892Z,16.36
2023-05-05T01:08:55.523Z,16.39
2023-05-05T01:11:34.642Z,16.43
2023-05-05T01:14:34.346Z,16.44
2023-05-05T01:17:15.626Z,16.48
2023-05-05T01:20:22.687Z,16.48
2023-05-05T01:23:01.334Z,16.45
2023-05-05T01:25:41.318Z,16.46
2023-05-05T01:28:27.955Z,16.47
2023-05-05T01:31:17.682Z,16.46
2023-05-05T01:33:52.849Z,16.46
2023-05-05T01:36:32.718Z,16.44
2023-05-05T01:39:04.458Z,16.40
2023-05-05T01:42:02.610Z,16.40
2023-05-05T01:44:32.605Z,16.36
2023-05-05T01:47:03.167Z,16.34
2023-05-05T01:49:33.248Z,16.34
2023-05-05T01:52:03.671Z,16.29
2023-05-05T01:54:34.570Z,16.29
2023-05-05T01:57:06.233Z,16.28
2023-05-05T01:59:35.673Z,16.27
2023-05-05T02:02:04.015Z,16.26
2023-05-05T02:04:35.343Z,16.21
2023-05-05T02:07:04.869Z,16.13
2023-05-05T02:09:33.354Z,16.07
2023-05-05T02:12:03.792Z,16.00
2023-05-05T02:14:32.831Z,15.91
2023-05-05T02:17:01.457Z,15.83
2023-05-05T02:19:41.784Z,15.75
2023-05-05T02:22:08.991Z,15.66
2023-05-05T02:24:36.196Z,15.60
2023-05-05T02:27:07.301Z,15.54
2023-05-05T02:29:52.024Z,15.47
2023-05-05T02:32:32.338Z,15.38
2023-05-05T02:35:26.695Z,15.29
2023-05-05T02:38:02.830Z,15.21
2023-05-05T02:40:37.531Z,15.14
2023-05-05T02:43:10.896Z,15.13
2023-05-05T02:45:38.974Z,15.05
2023-05-05T02:48:06.629Z,15.02
2023-05-05T02:50:38.372Z,15.00
2023-05-05T02:53:26.833Z,14.94
2023-05-05T02:56:01.978Z,14.88
2023-05-05T02:58:52.936Z,14.81
2023-05-05T03:01:57.667Z,14.76
2023-05-05T03:04:48.691Z,14.69
2023-05-05T03:07:37.700Z,14.60
2023-05-05T03:10:12.085Z,14.52
2023-05-05T03:12:53.848Z,14.45
2023-05-05T03:15:44.680Z,14.36
2023-05-05T03:18:15.573Z,14.28
2023-05-05T03:20:46.880Z,14.25
2023-05-05T03:23:18.329Z,14.18
2023-05-05T03:25:48.800Z,14.12
2023-05-05T03:28:28.077Z,14.08
2023-05-05T03:30:57.769Z,14.05
2023-05-05T03:33:25.625Z,14.01
2023-05-05T03:35:52.677Z,13.95
2023-05-05T03:38:19.633Z,13.92
2023-05-05T03:40:46.622Z,13.93
2023-05-05T03:43:17.687Z,13.90
2023-05-05T03:45:44.763Z,13.88
2023-05-05T03:48:12.166Z,13.86
2023-05-05T03:50:40.930Z,13.84
2023-05-05T03:53:08.493Z,13.81
2023-05-05T03:55:35.529Z,13.78
2023-05-05T03:58:02.535Z,13.76
2023-05-05T04:00:29.501Z,13.75
2023-05-05T04:02:56.973Z,13.75
2023-05-05T04:05:26.482Z,13.75
2023-05-05T04:07:54.017Z,13.73
2023-05-05T04:10:21.522Z,13.72
2023-05-05T04:12:48.896Z,13.72
2023-05-05T04:15:16.104Z,13.72
2023-05-05T04:17:43.691Z,13.68
2023-05-05T04:20:11.355Z,13.65
2023-05-05T04:22:38.580Z,13.62
2023-05-05T04:25:06.676Z,13.66
2023-05-05T04:27:33.714Z,13.68
2023-05-05T04:30:01.086Z,13.71
2023-05-05T04:32:28.395Z,13.72
2023-05-05T04:34:55.804Z,13.76
2023-05-05T04:37:23.376Z,13.80
2023-05-05T04:39:53.138Z,13.88
2023-05-05T04:42:20.367Z,14.01
2023-05-05T04:44:47.397Z,14.20
2023-05-05T04:47:14.895Z,14.37
2023-05-05T04:49:42.466Z,14.65
2023-05-05T04:52:11.817Z,15.06
2023-05-05T04:54:38.917Z,15.57
2023-05-05T04:57:06.314Z,16.27
2023-05-05T04:59:33.372Z,17.01
2023-05-05T05:02:00.374Z,17.03
2023-05-05T05:04:27.949Z,16.85
2023-05-05T05:06:56.229Z,16.86
2023-05-05T05:09:25.468Z,16.65
2023-05-05T05:11:53.352Z,16.59
2023-05-05T05:14:21.787Z,16.60
2023-05-05T05:16:52.298Z,16.68
2023-05-05T05:19:21.295Z,16.83
2023-05-05T05:21:48.471Z,17.05
2023-05-05T05:24:16.280Z,17.40
2023-05-05T05:26:43.892Z,18.20
2023-05-05T05:29:11.164Z,18.61
2023-05-05T05:31:39.739Z,18.93
2023-05-05T05:34:07.334Z,19.17
2023-05-05T05:36:35.149Z,19.36
2023-05-05T05:39:02.910Z,19.81
2023-05-05T05:41:29.896Z,20.01
2023-05-05T05:43:57.156Z,20.07
2023-05-05T05:46:24.325Z,20.56
2023-05-05T05:48:51.272Z,20.74
2023-05-05T05:51:18.889Z,20.59
2023-05-05T05:53:47.303Z,19.86
2023-05-05T05:56:14.392Z,19.13
2023-05-05T05:58:42.363Z,18.55
2023-05-05T06:01:10.161Z,18.11
2023-05-05T06:03:37.313Z,17.77
2023-05-05T06:06:04.612Z,17.49
2023-05-05T06:08:31.551Z,17.29
2023-05-05T06:11:00.515Z,17.19
2023-05-05T06:13:27.644Z,17.07
2023-05-05T06:15:54.769Z,17.02
2023-05-05T06:18:21.875Z,16.98
2023-05-05T06:20:50.883Z,16.97
2023-05-05T06:23:19.066Z,16.95
2023-05-05T06:25:55.638Z,16.96
2023-05-05T06:28:22.785Z,17.00
2023-05-05T06:30:49.751Z,16.97
2023-05-05T06:33:16.802Z,17.00
2023-05-05T06:35:43.794Z,17.03
2023-05-05T06:38:10.820Z,17.12
2023-05-05T06:40:37.796Z,17.22
2023-05-05T06:43:05.342Z,17.27
2023-05-05T06:45:36.772Z,17.34
2023-05-05T06:48:03.939Z,17.44
2023-05-05T06:50:30.939Z,17.57
2023-05-05T06:52:57.933Z,17.68
2023-05-05T06:55:25.407Z,17.80
2023-05-05T06:57:52.495Z,17.92
2023-05-05T07:00:19.972Z,18.05
2023-05-05T07:02:47.628Z,18.12
2023-05-05T07:05:14.664Z,18.22
2023-05-05T07:07:57.320Z,18.33
2023-05-05T07:10:25.880Z,18.44
2023-05-05T07:12:54.798Z,18.57
2023-05-05T07:15:28.534Z,18.59
2023-05-05T07:17:57.272Z,18.58
2023-05-05T07:20:24.717Z,18.57
2023-05-05T07:22:51.806Z,18.62
2023-05-05T07:25:18.945Z,18.65
2023-05-05T07:27:46.072Z,18.66
2023-05-05T07:30:17.356Z,18.71
2023-05-05T07:32:45.956Z,18.74
2023-05-05T07:35:13.525Z,18.76
2023-05-05T07:37:40.516Z,18.75
2023-05-05T07:40:08.805Z,18.80
2023-05-05T07:42:36.237Z,18.89
2023-05-05T07:45:04.232Z,19.00
2023-05-05T07:47:33.410Z,19.08
2023-05-05T07:50:01.152Z,19.19
2023-05-05T07:52:44.266Z,19.29
2023-05-05T07:55:15.258Z,19.40
2023-05-05T07:57:42.263Z,19.45
2023-05-05T08:00:10.774Z,19.47
2023-05-05T08:02:41.370Z,19.43
2023-05-05T08:05:09.459Z,19.48
2023-05-05T08:07:40.988Z,19.57
2023-05-05T08:10:11.250Z,19.66
2023-05-05T08:12:38.985Z,19.78
2023-05-05T08:15:06.883Z,19.84
2023-05-05T08:17:55.782Z,19.93
2023-05-05T08:20:27.209Z,20.01
2023-05-05T08:22:54.269Z,20.14
2023-05-05T08:25:21.203Z,20.21
2023-05-05T08:27:48.231Z,20.26
2023-05-05T08:30:17.162Z,20.37
2023-05-05T08:32:44.263Z,20.46
2023-05-05T08:35:11.880Z,20.62
2023-05-05T08:37:39.318Z,20.83
2023-05-05T08:40:07.276Z,20.89
2023-05-05T08:42:38.389Z,20.90
2023-05-05T08:45:10.922Z,20.90
2023-05-05T08:47:39.170Z,20.89
2023-05-05T08:50:10.180Z,20.69
2023-05-05T08:52:44.484Z,20.67
2023-05-05T08:55:24.455Z,21.00
2023-05-05T08:57:56.444Z,21.19
2023-05-05T09:00:26.432Z,21.31
2023-05-05T09:02:57.415Z,21.51
2023-05-05T09:05:26.006Z,21.75
2023-05-05T09:07:53.438Z,21.94
2023-05-05T09:10:20.906Z,22.13
2023-05-05T09:12:50.392Z,22.38
2023-05-05T09:15:17.544Z,22.60
2023-05-05T09:17:44.650Z,22.69
2023-05-05T09:20:14.368Z,22.79
2023-05-05T09:22:44.813Z,22.86
2023-05-05T09:25:15.080Z,22.92
2023-05-05T09:27:43.562Z,22.95
2023-05-05T09:30:14.673Z,22.96
2023-05-05T09:32:49.543Z,23.02
2023-05-05T09:35:19.089Z,23.04
2023-05-05T09:37:47.007Z,23.03
2023-05-05T09:40:17.305Z,23.12
2023-05-05T09:42:47.614Z,23.22
2023-05-05T09:45:17.633Z,23.26
2023-05-05T09:47:49.255Z,23.30
2023-05-05T09:50:20.998Z,23.31
2023-05-05T09:52:58.624Z,23.27
2023-05-05T09:55:25.984Z,23.20
2023-05-05T09:57:53.126Z,23.11
2023-05-05T10:00:21.175Z,23.04
2023-05-05T10:02:48.283Z,22.98
2023-05-05T10:05:18.231Z,22.92
2023-05-05T10:07:47.602Z,22.90
2023-05-05T10:10:18.442Z,22.91
2023-05-05T10:12:47.568Z,22.87
2023-05-05T10:15:16.401Z,22.80
2023-05-05T10:20:19.202Z,22.47
2023-05-05T10:22:52.799Z,22.39
2023-05-05T10:25:42.220Z,22.34
2023-05-05T10:28:19.658Z,22.28
2023-05-05T10:30:52.746Z,22.26
2023-05-05T10:33:39.092Z,22.25
2023-05-05T10:36:07.748Z,22.31
2023-05-05T10:38:37.241Z,22.40
2023-05-05T10:41:04.707Z,22.52
2023-05-05T10:43:32.044Z,22.64
2023-05-05T10:46:00.763Z,22.73
2023-05-05T10:48:47.274Z,22.85
2023-05-05T10:51:42.031Z,22.92
2023-05-05T10:54:52.412Z,22.89
2023-05-05T10:57:26.958Z,22.85
2023-05-05T10:59:53.978Z,22.73
2023-05-05T11:02:26.395Z,22.67
2023-05-05T11:05:09.842Z,22.59
2023-05-05T11:07:37.821Z,22.46
2023-05-05T11:10:07.999Z,22.23
2023-05-05T11:13:02.864Z,21.83
2023-05-05T11:15:37.288Z,21.36
2023-05-05T11:18:07.796Z,20.97
2023-05-05T11:20:35.024Z,20.53
2023-05-05T11:23:05.479Z,20.19
2023-05-05T11:25:42.176Z,19.84
2023-05-05T11:28:16.303Z,19.49
2023-05-05T11:30:56.056Z,19.09
2023-05-05T11:33:29.841Z,18.69
2023-05-05T11:36:19.940Z,18.34
2023-05-05T11:39:11.896Z,17.97
2023-05-05T11:42:10.204Z,17.76
2023-05-05T11:44:38.153Z,17.57
2023-05-05T11:47:05.100Z,17.43
2023-05-05T11:49:32.956Z,17.32
2023-05-05T11:52:04.300Z,17.20
2023-05-05T11:54:32.027Z,17.03
2023-05-05T11:57:05.598Z,16.83
2023-05-05T11:59:34.625Z,16.61
2023-05-05T12:02:04.483Z,16.13
2023-05-05T12:04:32.212Z,15.48
2023-05-05T12:06:59.925Z,14.95
2023-05-05T12:09:27.464Z,14.55
2023-05-05T12:11:59.664Z,14.27
2023-05-05T12:14:27.517Z,14.03
2023-05-05T12:17:07.756Z,13.95
2023-05-05T12:19:36.202Z,14.01
2023-05-05T12:22:04.964Z,14.14
2023-05-05T12:24:32.122Z,14.27
2023-05-05T12:27:10.676Z,14.45
2023-05-05T12:29:37.993Z,14.60
2023-05-05T12:32:05.588Z,14.72
2023-05-05T12:34:33.365Z,14.73
2023-05-05T12:37:01.143Z,14.73
2023-05-05T12:39:38.240Z,14.84
2023-05-05T12:42:06.418Z,14.98
2023-05-05T12:44:37.937Z,14.99
2023-05-05T12:47:05.610Z,14.96
2023-05-05T12:49:45.232Z,14.97
2023-05-05T12:52:12.741Z,14.99
2023-05-05T12:54:59.664Z,15.12
2023-05-05T12:57:27.208Z,15.22
2023-05-05T12:59:54.775Z,15.36
2023-05-05T13:02:21.961Z,15.50
2023-05-05T13:04:53.480Z,15.61
2023-05-05T13:07:22.153Z,15.64
2023-05-05T13:09:50.920Z,15.59
2023-05-05T13:12:18.748Z,15.48
2023-05-05T13:14:46.815Z,15.32
2023-05-05T13:17:14.636Z,15.22
2023-05-05T13:19:42.743Z,15.12
2023-05-05T13:22:10.317Z,15.02
2023-05-05T13:24:47.161Z,14.93
2023-05-05T13:27:20.126Z,14.82
2023-05-05T13:29:47.083Z,14.75
2023-05-05T13:32:14.096Z,14.72
2023-05-05T13:34:42.472Z,14.68
2023-05-05T13:37:09.660Z,14.66
2023-05-05T13:39:37.020Z,14.61
2023-05-05T13:42:04.251Z,14.56
2023-05-05T13:44:31.452Z,14.51
2023-05-05T13:46:58.494Z,14.49
2023-05-05T13:49:25.711Z,14.45
2023-05-05T13:51:52.768Z,14.49
2023-05-05T13:54:19.743Z,14.54
2023-05-05T13:56:46.729Z,14.62
2023-05-05T13:59:13.791Z,14.70
2023-05-05T14:01:40.991Z,14.68
2023-05-05T14:04:08.364Z,14.59
2023-05-05T14:06:36.155Z,14.48
2023-05-05T14:09:05.974Z,14.36
2023-05-05T14:11:33.626Z,14.26
2023-05-05T14:14:00.782Z,14.07
2023-05-05T14:16:27.877Z,13.99
2023-05-05T14:18:55.005Z,13.97
2023-05-05T14:21:22.029Z,13.97
2023-05-05T14:23:49.088Z,13.91
2023-05-05T14:26:16.207Z,13.84
2023-05-05T14:28:43.554Z,13.77
2023-05-05T14:31:11.258Z,13.76
2023-05-05T14:33:38.509Z,13.80
2023-05-05T14:36:05.948Z,13.91
2023-05-05T14:38:32.955Z,14.08
2023-05-05T14:41:00.128Z,14.22
2023-05-05T14:43:27.120Z,14.33
2023-05-05T14:45:54.278Z,14.45
2023-05-05T14:48:22.476Z,14.57
2023-05-05T14:50:49.990Z,14.67
2023-05-05T14:53:18.928Z,14.74
2023-05-05T14:55:45.955Z,14.86
2023-05-05T14:58:12.928Z,15.00
2023-05-05T15:00:39.871Z,15.14
2023-05-05T15:03:07.007Z,15.21
2023-05-05T15:05:33.993Z,15.19
2023-05-05T15:08:01.041Z,15.14
2023-05-05T15:10:28.021Z,15.09
2023-05-05T15:12:55.071Z,15.11
2023-05-05T15:15:22.137Z,15.18
2023-05-05T15:17:49.180Z,15.30
2023-05-05T15:20:16.225Z,15.34
2023-05-05T15:22:43.279Z,15.30
2023-05-05T15:25:12.440Z,15.28
2023-05-05T15:27:39.804Z,15.22
2023-05-05T15:30:07.790Z,15.19
2023-05-05T15:32:34.875Z,15.13
2023-05-05T15:35:02.040Z,15.07
2023-05-05T15:37:29.200Z,15.00
2023-05-05T15:39:56.379Z,14.96
2023-05-05T15:42:23.676Z,14.93
2023-05-05T15:44:51.673Z,14.92
2023-05-05T15:47:18.762Z,14.93
2023-05-05T15:49:45.852Z,15.02
2023-05-05T15:52:13.914Z,15.24
2023-05-05T15:54:41.417Z,15.43
2023-05-05T15:57:08.571Z,15.55
2023-05-05T15:59:35.719Z,15.80
2023-05-05T16:02:02.883Z,16.16
2023-05-05T16:04:30.173Z,16.36
2023-05-05T16:06:58.068Z,16.42
2023-05-05T16:09:25.284Z,16.64
2023-05-05T16:11:55.305Z,16.80
2023-05-05T16:14:22.424Z,16.90
2023-05-05T16:16:49.492Z,17.29
2023-05-05T16:19:16.618Z,17.63
2023-05-05T16:21:43.617Z,17.70
2023-05-05T16:24:10.651Z,17.77
2023-05-05T16:26:37.742Z,17.90
2023-05-05T16:29:04.785Z,17.97
2023-05-05T16:31:33.988Z,17.80
2023-05-05T16:34:01.113Z,17.36
2023-05-05T16:36:28.784Z,17.06
2023-05-05T16:38:56.507Z,16.80
2023-05-05T16:41:23.890Z,16.63
2023-05-05T16:43:50.881Z,16.51
2023-05-05T16:46:18.289Z,16.53
2023-05-05T16:48:46.014Z,16.73
2023-05-05T16:51:13.075Z,17.09
2023-05-05T16:53:40.099Z,17.62
2023-05-05T16:56:07.297Z,18.04
2023-05-05T16:58:34.285Z,18.20
2023-05-05T17:01:02.739Z,18.31
2023-05-05T17:03:30.504Z,18.46
2023-05-05T17:05:58.152Z,18.67
2023-05-05T17:08:25.172Z,18.91
2023-05-05T17:10:52.177Z,19.19
2023-05-05T17:13:19.427Z,19.45
2023-05-05T17:15:46.880Z,19.40
2023-05-05T17:18:13.893Z,19.50
2023-05-05T17:20:40.970Z,19.76
2023-05-05T17:23:08.800Z,19.98
2023-05-05T17:25:36.036Z,19.82
2023-05-05T17:28:03.189Z,19.48
2023-05-05T17:30:30.248Z,19.44
2023-05-05T17:32:57.596Z,19.30
2023-05-05T17:35:24.615Z,19.18
2023-05-05T17:37:51.845Z,18.94
2023-05-05T17:40:18.840Z,18.66
2023-05-05T17:42:45.940Z,18.40
2023-05-05T17:45:13.014Z,18.18
2023-05-05T17:47:40.091Z,18.01
2023-05-05T17:50:07.694Z,17.87
2023-05-05T17:52:34.632Z,17.69
2023-05-05T17:55:01.616Z,17.48
2023-05-05T17:57:28.679Z,17.29
2023-05-05T17:59:55.671Z,17.15
2023-05-05T18:02:24.004Z,17.02
2023-05-05T18:04:51.235Z,16.87
2023-05-05T18:07:18.197Z,16.73
2023-05-05T18:09:45.252Z,16.62
2023-05-05T18:12:12.192Z,16.48
2023-05-05T18:14:39.224Z,16.34
2023-05-05T18:17:06.172Z,16.19
2023-05-05T18:19:33.116Z,16.02
2023-05-05T18:22:00.166Z,15.87
2023-05-05T18:24:28.137Z,15.84
2023-05-05T18:26:55.435Z,16.04
2023-05-05T18:29:22.544Z,16.25
2023-05-05T18:31:53.032Z,16.43
2023-05-05T18:34:21.100Z,16.53
2023-05-05T18:36:51.034Z,16.49
2023-05-05T18:39:18.054Z,16.30
2023-05-05T18:41:45.140Z,16.10
2023-05-05T18:44:12.207Z,15.91
2023-05-05T18:46:39.339Z,15.72
2023-05-05T18:49:06.420Z,15.54
2023-05-05T18:51:33.416Z,15.36
2023-05-05T18:54:03.131Z,15.25
2023-05-05T18:56:31.176Z,15.12
2023-05-05T18:58:58.243Z,14.98
2023-05-05T19:01:25.448Z,14.85
2023-05-05T19:03:52.573Z,14.71
2023-05-05T19:06:19.579Z,14.58
2023-05-05T19:08:47.104Z,14.47
2023-05-05T19:11:15.109Z,14.38
2023-05-05T19:13:42.547Z,14.26
2023-05-05T19:16:11.172Z,14.13
2023-05-05T19:18:38.795Z,14.03
2023-05-05T19:21:05.823Z,13.92
2023-05-05T19:23:33.404Z,13.83
2023-05-05T19:26:00.638Z,13.72
2023-05-05T19:28:27.634Z,13.63
2023-05-05T19:30:54.688Z,13.56
2023-05-05T19:33:22.235Z,13.48
2023-05-05T19:35:49.874Z,13.39
2023-05-05T19:38:16.916Z,13.31
2023-05-05T19:40:43.886Z,13.23
2023-05-05T19:43:10.847Z,13.15
2023-05-05T19:45:38.037Z,13.07
2023-05-05T19:48:05.693Z,13.02
2023-05-05T19:50:32.709Z,12.96
2023-05-05T19:52:59.674Z,12.86
2023-05-05T19:55:27.036Z,12.79
2023-05-05T19:57:54.110Z,12.71
2023-05-05T20:00:21.617Z,12.64
2023-05-05T20:02:49.033Z,12.56
2023-05-05T20:05:17.386Z,12.48
2023-05-05T20:07:46.787Z,12.43
2023-05-05T20:10:13.982Z,12.38
2023-05-05T20:12:48.869Z,12.30
2023-05-05T20:15:18.954Z,12.23
2023-05-05T20:17:47.820Z,12.15
2023-05-05T20:20:21.861Z,12.10
2023-05-05T20:22:49.587Z,12.06
2023-05-05T20:25:16.752Z,12.01
2023-05-05T20:27:45.717Z,11.98
2023-05-05T20:30:13.188Z,11.92
2023-05-05T20:32:40.885Z,11.89
2023-05-05T20:35:08.991Z,11.81
2023-05-05T20:37:36.029Z,11.74
2023-05-05T20:40:03.803Z,11.67
2023-05-05T20:42:30.914Z,11.61
2023-05-05T20:45:00.949Z,11.57
2023-05-05T20:47:28.029Z,11.53
2023-05-05T20:49:55.034Z,11.47
2023-05-05T20:52:22.138Z,11.43
2023-05-05T20:54:49.080Z,11.37
2023-05-05T20:57:16.124Z,11.33
2023-05-05T20:59:43.094Z,11.28
2023-05-05T21:02:10.255Z,11.24
2023-05-05T21:04:37.303Z,11.18
2023-05-05T21:07:04.453Z,11.12
2023-05-05T21:09:31.647Z,11.09
2023-05-05T21:11:58.782Z,11.03
2023-05-05T21:14:25.925Z,11.03
2023-05-05T21:16:52.981Z,11.00
2023-05-05T21:19:19.929Z,10.97
2023-05-05T21:21:47.600Z,10.95
2023-05-05T21:24:14.673Z,10.93
2023-05-05T21:26:45.625Z,10.91
2023-05-05T21:29:12.657Z,10.87
2023-05-05T21:31:39.680Z,10.84
2023-05-05T21:34:06.693Z,10.83
2023-05-05T21:36:33.922Z,10.81
2023-05-05T21:39:01.224Z,10.81
2023-05-05T21:41:28.362Z,10.81
2023-05-05T21:43:55.755Z,10.81
2023-05-05T21:46:22.988Z,10.77
2023-05-05T21:48:50.086Z,10.74
2023-05-05T21:51:17.465Z,10.72
2023-05-05T21:53:44.674Z,10.72
2023-05-05T21:56:11.661Z,10.71
2023-05-05T21:58:38.707Z,10.71
2023-05-05T22:01:05.807Z,10.72
2023-05-05T22:03:34.569Z,10.74
2023-05-05T22:06:01.784Z,10.74
2023-05-05T22:08:28.767Z,10.74
2023-05-05T22:10:55.776Z,10.76
2023-05-05T22:13:22.796Z,10.76
2023-05-05T22:15:50.239Z,10.75
2023-05-05T22:18:17.264Z,10.73
2023-05-05T22:20:44.539Z,10.70
2023-05-05T22:23:11.718Z,10.68
2023-05-05T22:25:38.645Z,10.67
2023-05-05T22:28:05.658Z,10.66
2023-05-05T22:30:32.872Z,10.67
2023-05-05T22:32:59.863Z,10.69
2023-05-05T22:35:27.412Z,10.70
2023-05-05T22:37:54.431Z,10.70
2023-05-05T22:40:21.455Z,10.70
2023-05-05T22:42:48.435Z,10.67
2023-05-05T22:45:15.726Z,10.63
2023-05-05T22:47:42.757Z,10.61
2023-05-05T22:50:10.317Z,10.57
2023-05-05T22:52:37.317Z,10.53
2023-05-05T22:55:04.807Z,10.51
2023-05-05T22:57:34.695Z,10.50
2023-05-05T23:01:07.263Z,10.46
2023-05-05T23:03:34.404Z,10.46
2023-05-05T23:06:01.380Z,10.45
2023-05-05T23:08:28.338Z,10.44
2023-05-05T23:10:56.117Z,10.43
2023-05-05T23:13:23.211Z,10.46
2023-05-05T23:15:50.293Z,10.49
2023-05-05T23:18:17.307Z,10.55
2023-05-05T23:20:44.352Z,10.59
2023-05-05T23:23:11.338Z,10.62
2023-05-05T23:25:38.329Z,10.64
2023-05-05T23:28:05.319Z,10.65
2023-05-05T23:30:32.349Z,10.67
2023-05-05T23:33:00.911Z,10.65
2023-05-05T23:35:27.885Z,10.67
2023-05-05T23:37:54.893Z,10.66
2023-05-05T23:40:22.274Z,10.66
2023-05-05T23:42:49.312Z,10.65
2023-05-05T23:45:18.635Z,10.64
2023-05-05T23:47:46.397Z,10.60
2023-05-05T23:50:13.436Z,10.57
2023-05-05T23:52:41.723Z,10.57
2023-05-05T23:55:10.273Z,10.54
2023-05-05T23:57:37.763Z,10.55
